Time;durP1;ratioP1;P1;durP2;ratioP2;P2;SDS_P1;SDS_P2;PMS_P1;PMS_P2;Temp;Humidity;BMP_temperature;BMP_pressure;BME280_temperature;BME280_humidity;BME280_pressure;Samples;Min_cycle;Max_cycle;Signal;HPM_P1;HPM_P2
2021/09/20 00:01:01;;;;;;;10.60;6.68;;;;;;;21.70;59.80;99367.81;5051783;28;20025;-50
2021/09/20 00:03:26;;;;;;;8.70;6.63;;;;;;;21.70;59.83;99367.81;5050565;28;20017;-47
2021/09/20 00:05:52;;;;;;;10.00;6.55;;;;;;;21.75;59.89;99366.97;5051784;28;20480;-49
2021/09/20 00:08:17;;;;;;;8.45;6.55;;;;;;;21.63;60.27;99373.56;5051622;28;20033;-49
2021/09/20 00:10:43;;;;;;;8.80;6.70;;;;;;;21.69;59.98;99370.81;5052079;28;20024;-50
2021/09/20 00:13:08;;;;;;;10.02;6.20;;;;;;;21.59;60.14;99371.72;5051249;28;20072;-50
2021/09/20 00:15:34;;;;;;;10.40;6.32;;;;;;;21.57;60.33;99371.19;5051408;28;20496;-49
2021/09/20 00:17:59;;;;;;;7.93;6.35;;;;;;;21.67;59.76;99376.53;5050888;28;20021;-47
2021/09/20 00:20:24;;;;;;;12.82;6.38;;;;;;;21.69;60.18;99374.34;5051158;28;20086;-48
2021/09/20 00:22:52;;;;;;;12.27;7.25;;;;;;;21.66;60.10;99364.06;5051179;28;20393;-50
2021/09/20 00:25:18;;;;;;;11.50;7.13;;;;;;;21.50;60.70;99365.31;5049972;28;20021;-51
2021/09/20 00:27:43;;;;;;;12.23;7.20;;;;;;;21.32;60.99;99362.19;5051095;28;20036;-49
2021/09/20 00:30:09;;;;;;;10.32;6.80;;;;;;;21.24;61.47;99354.69;5051708;28;20020;-47
2021/09/20 00:32:35;;;;;;;9.20;6.78;;;;;;;21.26;61.17;99357.91;5051248;28;20021;-49
2021/09/20 00:35:00;;;;;;;9.77;6.45;;;;;;;21.46;60.39;99355.06;5051093;28;20104;-47
2021/09/20 00:37:26;;;;;;;8.38;5.97;;;;;;;21.48;60.29;99352.88;5051129;28;20033;-47
2021/09/20 00:39:51;;;;;;;10.85;6.20;;;;;;;21.44;60.42;99351.03;5051055;28;20102;-49
2021/09/20 00:42:17;;;;;;;10.00;6.00;;;;;;;21.45;60.45;99353.44;5050907;28;20039;-51
2021/09/20 00:44:42;;;;;;;7.95;5.88;;;;;;;21.45;60.30;99347.22;5050686;28;20025;-50
2021/09/20 00:47:07;;;;;;;9.45;6.35;;;;;;;21.38;60.57;99341.28;5050856;28;20032;-50
2021/09/20 00:49:33;;;;;;;9.93;6.30;;;;;;;21.36;60.65;99338.88;5050990;28;20029;-49
2021/09/20 00:51:58;;;;;;;11.18;6.40;;;;;;;21.28;60.73;99332.19;5050717;28;20488;-48
2021/09/20 00:54:24;;;;;;;10.15;5.72;;;;;;;21.41;60.09;99340.72;5050615;28;20025;-50
2021/09/20 00:56:49;;;;;;;10.18;6.38;;;;;;;21.35;60.17;99342.66;5050532;28;20022;-50
2021/09/20 00:59:17;;;;;;;12.27;5.80;;;;;;;21.45;60.23;99344.50;5050319;28;20021;-48
2021/09/20 01:01:42;;;;;;;9.40;6.32;;;;;;;21.49;59.83;99332.00;5050036;28;20115;-48
2021/09/20 01:04:08;;;;;;;10.05;6.13;;;;;;;21.40;60.33;99334.50;5050326;28;20039;-49
2021/09/20 01:06:33;;;;;;;11.23;6.10;;;;;;;21.34;60.68;99326.72;5050537;28;20033;-47
2021/09/20 01:08:59;;;;;;;10.68;6.38;;;;;;;21.26;60.82;99328.94;5050478;28;20025;-50
2021/09/20 01:11:24;;;;;;;7.65;5.93;;;;;;;21.25;60.31;99324.63;5050245;28;20389;-49
2021/09/20 01:13:50;;;;;;;10.18;5.93;;;;;;;21.15;60.71;99327.44;5050193;28;20053;-50
2021/09/20 01:16:15;;;;;;;7.20;5.45;;;;;;;21.12;61.10;99322.59;5050577;28;20104;-48
2021/09/20 01:18:41;;;;;;;11.05;6.15;;;;;;;21.20;60.68;99319.25;5050534;28;20430;-47
2021/09/20 01:21:06;;;;;;;9.30;6.07;;;;;;;21.25;60.82;99319.22;5050407;28;20029;-48
2021/09/20 01:23:32;;;;;;;8.43;6.18;;;;;;;21.21;60.67;99320.06;5050707;28;20028;-48
2021/09/20 01:25:57;;;;;;;8.73;6.07;;;;;;;21.19;60.58;99316.84;5050252;28;20025;-49
2021/09/20 01:28:23;;;;;;;9.60;6.25;;;;;;;21.20;60.67;99321.16;5050061;28;20405;-50
2021/09/20 01:30:48;;;;;;;10.88;6.05;;;;;;;21.16;60.99;99320.13;5050195;28;20025;-50
2021/09/20 01:33:14;;;;;;;8.52;5.72;;;;;;;21.26;60.72;99320.81;5050246;28;20501;-52
2021/09/20 01:35:39;;;;;;;9.20;6.10;;;;;;;21.20;61.09;99324.66;5048989;28;20025;-50
2021/09/20 01:38:05;;;;;;;9.02;5.90;;;;;;;21.15;60.60;99322.03;5050094;28;20091;-47
2021/09/20 01:40:30;;;;;;;8.65;6.03;;;;;;;20.95;60.64;99278.91;5050227;28;20496;-51
2021/09/20 01:42:56;;;;;;;11.00;6.00;;;;;;;21.23;60.71;99326.81;5050336;28;20021;-48
2021/09/20 01:45:24;;;;;;;9.20;6.15;;;;;;;21.20;60.45;99331.97;5050504;28;20118;-48
2021/09/20 01:47:50;;;;;;;9.85;5.60;;;;;;;21.15;60.86;99332.03;5050173;28;20131;-50
2021/09/20 01:50:15;;;;;;;9.43;5.78;;;;;;;21.24;60.36;99330.31;5050005;28;20473;-48
2021/09/20 01:52:41;;;;;;;10.60;5.93;;;;;;;21.17;60.73;99335.25;5050084;28;20040;-48
2021/09/20 01:55:07;;;;;;;9.02;6.00;;;;;;;21.11;60.87;99339.09;5032343;28;20017;-49
2021/09/20 01:57:33;;;;;;;8.35;5.82;;;;;;;21.00;61.33;99351.88;5049794;28;20025;-49
2021/09/20 01:59:58;;;;;;;8.18;5.72;;;;;;;21.01;61.16;99359.72;5050153;28;20025;-49
2021/09/20 02:02:24;;;;;;;10.40;6.40;;;;;;;20.99;61.39;99364.59;5050144;28;20029;-50
2021/09/20 02:04:49;;;;;;;12.02;6.05;;;;;;;21.05;60.78;99365.38;5049991;28;20477;-49
2021/09/20 02:07:15;;;;;;;11.25;6.05;;;;;;;21.08;60.64;99359.41;5049872;28;20377;-49
2021/09/20 02:09:40;;;;;;;12.25;5.95;;;;;;;21.09;60.92;99353.72;5049946;28;20021;-49
2021/09/20 02:12:06;;;;;;;8.80;6.00;;;;;;;21.14;60.52;99341.25;5050014;28;20052;-48
2021/09/20 02:14:31;;;;;;;7.55;5.50;;;;;;;21.10;60.38;99346.41;5053755;28;20476;-48
2021/09/20 02:16:57;;;;;;;8.23;5.57;;;;;;;21.12;60.64;99333.41;5053573;28;20032;-51
2021/09/20 02:19:22;;;;;;;10.77;6.47;;;;;;;21.18;60.27;99332.25;5053512;28;20037;-49
2021/09/20 02:21:47;;;;;;;10.05;5.82;;;;;;;21.12;60.38;99325.28;5053460;28;20036;-49
2021/09/20 02:24:13;;;;;;;14.30;6.00;;;;;;;21.09;60.49;99328.56;5053429;28;20025;-47
2021/09/20 02:26:38;;;;;;;8.75;5.60;;;;;;;21.03;60.90;99335.09;5053385;28;20418;-47
2021/09/20 02:29:04;;;;;;;6.45;5.13;;;;;;;20.95;60.94;99333.81;5053451;28;20039;-47
2021/09/20 02:31:29;;;;;;;10.10;5.63;;;;;;;21.03;60.26;99341.31;5053454;28;20040;-47
2021/09/20 02:33:55;;;;;;;8.10;5.45;;;;;;;21.00;60.38;99344.59;5053286;28;20039;-48
2021/09/20 02:36:20;;;;;;;9.00;5.60;;;;;;;20.99;60.65;99345.66;5053258;28;20025;-48
2021/09/20 02:38:46;;;;;;;11.43;5.88;;;;;;;20.95;60.68;99338.41;5053225;28;20040;-49
2021/09/20 02:41:11;;;;;;;7.05;5.90;;;;;;;21.03;60.28;99333.19;5052977;28;20036;-48
2021/09/20 02:43:37;;;;;;;8.52;5.72;;;;;;;20.94;60.62;99332.19;5053196;28;20464;-47
2021/09/20 02:46:02;;;;;;;9.65;5.88;;;;;;;21.02;60.59;99328.09;5053139;28;20037;-47
2021/09/20 02:48:28;;;;;;;8.02;5.53;;;;;;;20.97;60.59;99330.81;5052944;28;20037;-48
2021/09/20 02:50:53;;;;;;;11.35;5.95;;;;;;;21.03;60.42;99327.78;5052926;28;20029;-47
2021/09/20 02:53:19;;;;;;;9.93;5.53;;;;;;;21.07;60.07;99318.00;5053141;28;20363;-50
2021/09/20 02:55:44;;;;;;;8.40;5.65;;;;;;;20.95;60.38;99320.28;5052512;28;20056;-49
2021/09/20 02:58:10;;;;;;;7.60;5.55;;;;;;;20.84;60.59;99318.75;5052464;28;20520;-50
2021/09/20 03:00:35;;;;;;;10.60;6.22;;;;;;;20.80;60.27;99323.91;5052557;28;20033;-48
2021/09/20 03:03:01;;;;;;;9.50;6.20;;;;;;;20.87;60.07;99315.47;5052798;28;20029;-49
2021/09/20 03:05:27;;;;;;;9.80;6.13;;;;;;;20.84;60.22;99324.16;5052665;28;20028;-47
2021/09/20 03:07:52;;;;;;;8.30;5.85;;;;;;;20.84;60.16;99326.84;5052673;28;20028;-47
2021/09/20 03:10:18;;;;;;;7.35;5.80;;;;;;;20.73;60.50;99331.50;5052792;28;20029;-47
2021/09/20 03:12:43;;;;;;;11.63;6.38;;;;;;;20.67;60.26;99343.44;5052448;28;20053;-48
2021/09/20 03:15:09;;;;;;;7.95;5.97;;;;;;;20.64;60.54;99347.53;5052797;28;20028;-48
2021/09/20 03:17:34;;;;;;;8.95;5.90;;;;;;;20.49;61.17;99351.09;5052402;28;20412;-48
2021/09/20 03:20:00;;;;;;;9.40;5.95;;;;;;;20.39;61.31;99353.84;5052129;28;20037;-47
2021/09/20 03:22:26;;;;;;;7.85;5.70;;;;;;;20.07;62.60;99343.47;5052554;28;20029;-49
2021/09/20 03:24:52;;;;;;;7.28;5.10;;;;;;;20.08;62.95;99343.16;5052077;28;20132;-47
2021/09/20 03:27:18;;;;;;;8.82;5.80;;;;;;;20.41;61.67;99343.59;5052681;28;20025;-47
2021/09/20 03:29:43;;;;;;;10.15;6.10;;;;;;;20.45;61.00;99344.63;5052495;28;20036;-47
2021/09/20 03:32:09;;;;;;;10.95;6.20;;;;;;;20.30;61.45;99342.81;5052343;28;20033;-47
2021/09/20 03:34:35;;;;;;;9.07;6.18;;;;;;;20.33;60.97;99337.94;5052378;28;20132;-48
2021/09/20 03:37:01;;;;;;;9.15;6.07;;;;;;;20.34;60.76;99339.56;5051678;28;20029;-47
2021/09/20 03:39:26;;;;;;;9.32;6.35;;;;;;;20.29;61.12;99343.09;5051827;28;20033;-47
2021/09/20 03:41:52;;;;;;;8.82;6.30;;;;;;;20.24;61.14;99354.72;5051646;28;20171;-47
2021/09/20 03:44:17;;;;;;;8.93;6.30;;;;;;;20.25;60.85;99350.13;5051238;28;20037;-47
2021/09/20 03:46:43;;;;;;;10.30;6.60;;;;;;;20.13;61.21;99350.44;5052048;28;20109;-46
2021/09/20 03:49:08;;;;;;;11.00;6.82;;;;;;;20.20;61.22;99344.75;5051936;28;20094;-47
2021/09/20 03:51:34;;;;;;;9.18;6.78;;;;;;;20.16;61.10;99349.88;5051866;28;20044;-48
2021/09/20 03:53:59;;;;;;;9.90;6.03;;;;;;;20.22;61.03;99348.81;5051400;28;20035;-47
2021/09/20 03:56:25;;;;;;;10.65;6.60;;;;;;;20.31;61.13;99339.03;5051523;28;20029;-47
2021/09/20 03:58:50;;;;;;;9.77;6.47;;;;;;;20.25;61.00;99337.41;5051717;28;20021;-47
2021/09/20 04:01:15;;;;;;;10.35;6.90;;;;;;;20.37;61.50;99344.41;5051574;28;20476;-47
2021/09/20 04:03:41;;;;;;;19.17;11.35;;;;;;;20.51;60.24;99346.22;5051291;28;20028;-47
2021/09/20 04:06:06;;;;;;;25.05;15.25;;;;;;;20.52;60.39;99333.50;5051607;28;20025;-46
2021/09/20 04:08:32;;;;;;;12.25;7.65;;;;;;;20.50;60.01;99330.28;5051537;28;20090;-46
2021/09/20 04:10:57;;;;;;;10.15;6.53;;;;;;;20.43;60.21;99343.31;5051797;28;20048;-46
2021/09/20 04:13:23;;;;;;;10.98;6.32;;;;;;;20.39;61.04;99353.03;5051216;28;20110;-47
2021/09/20 04:15:53;;;;;;;14.10;8.52;;;;;;;20.48;60.73;99352.16;5051491;28;20025;-47
2021/09/20 04:18:19;;;;;;;15.68;12.00;;;;;;;20.64;59.93;99362.94;5049839;28;20602;-50
2021/09/20 04:20:44;;;;;;;42.08;28.23;;;;;;;20.75;59.88;99369.09;5051262;28;20081;-49
2021/09/20 04:23:09;;;;;;;20.60;10.15;;;;;;;20.89;59.23;99365.47;5051032;28;20495;-48
2021/09/20 04:25:35;;;;;;;10.85;6.70;;;;;;;20.89;59.22;99356.56;5049728;28;20426;-47
2021/09/20 04:28:00;;;;;;;14.05;6.53;;;;;;;20.99;59.19;99366.50;5050395;28;20028;-50
2021/09/20 04:30:26;;;;;;;9.25;6.30;;;;;;;21.20;58.54;99369.88;5050842;28;20029;-49
2021/09/20 04:32:51;;;;;;;11.10;5.95;;;;;;;21.20;59.33;99367.97;5050352;28;20033;-47
2021/09/20 04:35:17;;;;;;;10.32;5.78;;;;;;;21.20;59.31;99364.44;5041300;28;20059;-47
2021/09/20 04:37:42;;;;;;;12.32;6.43;;;;;;;21.58;57.60;99362.00;5043901;28;20523;-47
2021/09/20 04:40:08;;;;;;;10.93;6.35;;;;;;;21.67;57.35;99358.38;5033338;28;20040;-47
2021/09/20 04:42:33;;;;;;;11.18;6.38;;;;;;;21.64;57.41;99361.63;5030634;28;20090;-48
2021/09/20 04:44:59;;;;;;;10.35;6.28;;;;;;;21.73;57.12;99359.13;5028819;28;20030;-48
2021/09/20 04:47:24;;;;;;;9.70;6.10;;;;;;;21.78;56.81;99369.09;5029051;28;20045;-48
2021/09/20 04:49:50;;;;;;;14.10;6.40;;;;;;;21.80;56.40;99359.59;5028910;28;20032;-47
2021/09/20 04:52:15;;;;;;;12.40;6.75;;;;;;;21.76;56.46;99366.69;5028366;28;20504;-50
2021/09/20 04:54:41;;;;;;;10.48;6.22;;;;;;;21.71;55.70;99358.59;5029098;28;20768;-48
2021/09/20 04:57:06;;;;;;;10.43;5.90;;;;;;;21.78;56.36;99366.38;5027031;28;20033;-48
2021/09/20 04:59:32;;;;;;;8.00;5.72;;;;;;;21.71;56.47;99368.63;5026833;28;20029;-46
2021/09/20 05:01:57;;;;;;;9.93;5.85;;;;;;;21.74;56.45;99370.75;5028424;28;20031;-47
2021/09/20 05:04:22;;;;;;;9.82;6.22;;;;;;;21.79;55.91;99366.09;5028198;28;20087;-47
2021/09/20 05:06:48;;;;;;;14.95;6.88;;;;;;;21.72;55.82;99352.09;5028363;28;20230;-48
2021/09/20 05:09:13;;;;;;;15.00;6.65;;;;;;;21.62;56.04;99363.03;5028534;28;20033;-46
2021/09/20 05:11:39;;;;;;;30.50;17.50;;;;;;;21.69;55.39;99357.28;5029840;28;20466;-47
2021/09/20 05:14:04;;;;;;;13.70;8.63;;;;;;;21.48;56.39;99361.00;5029205;28;20118;-49
2021/09/20 05:16:30;;;;;;;10.93;6.97;;;;;;;21.48;56.56;99363.69;5030297;28;20033;-48
2021/09/20 05:18:56;;;;;;;14.70;7.03;;;;;;;21.55;56.65;99362.56;5030020;28;20025;-48
2021/09/20 05:21:21;;;;;;;12.70;6.93;;;;;;;21.73;56.02;99366.44;5047242;28;20104;-46
2021/09/20 05:23:47;;;;;;;9.95;6.30;;;;;;;21.82;55.97;99367.44;5050491;28;20365;-47
2021/09/20 05:26:13;;;;;;;9.77;6.03;;;;;;;21.82;56.24;99346.56;5050430;28;20029;-47
2021/09/20 05:28:38;;;;;;;12.88;6.40;;;;;;;22.03;55.38;99363.41;5050339;28;20454;-47
2021/09/20 05:31:04;;;;;;;9.70;6.32;;;;;;;22.10;55.29;99373.88;5049997;28;20492;-47
2021/09/20 05:33:34;;;;;;;12.80;6.28;;;;;;;22.16;54.99;99367.34;5049778;28;20044;-47
2021/09/20 05:36:03;;;;;;;11.02;5.68;;;;;;;22.37;55.04;99388.78;5050389;28;20436;-48
2021/09/20 05:38:29;;;;;;;9.35;5.95;;;;;;;22.50;54.30;99388.06;5049966;28;20107;-48
2021/09/20 05:40:54;;;;;;;12.07;6.22;;;;;;;22.40;54.66;99391.72;5049939;28;20025;-48
2021/09/20 05:43:20;;;;;;;9.43;6.15;;;;;;;22.45;54.26;99397.06;5050007;28;20067;-47
2021/09/20 05:45:45;;;;;;;10.63;5.97;;;;;;;22.50;54.05;99388.06;5050289;28;20028;-46
2021/09/20 05:48:11;;;;;;;10.60;6.75;;;;;;;22.60;53.93;99398.00;5054075;28;20044;-47
2021/09/20 05:50:36;;;;;;;14.77;9.93;;;;;;;22.68;53.65;99391.09;5052623;28;20025;-48
2021/09/20 05:53:02;;;;;;;13.60;8.18;;;;;;;22.69;53.87;99390.00;5054184;28;20028;-48
2021/09/20 05:55:27;;;;;;;12.40;6.45;;;;;;;22.78;53.21;99374.69;5053797;28;20021;-48
2021/09/20 05:57:53;;;;;;;8.93;6.25;;;;;;;22.89;52.75;99365.28;5053609;28;20032;-48
2021/09/20 06:00:18;;;;;;;10.32;6.78;;;;;;;22.87;52.83;99375.63;5053660;28;20033;-46
2021/09/20 06:02:44;;;;;;;22.65;14.27;;;;;;;23.05;52.83;99387.59;5053631;28;20021;-46
2021/09/20 06:05:12;;;;;;;14.15;8.57;;;;;;;22.97;53.12;99385.53;5053464;28;20025;-48
2021/09/20 06:07:38;;;;;;;13.02;6.38;;;;;;;22.89;53.22;99378.06;5053170;28;20090;-47
2021/09/20 06:10:04;;;;;;;12.73;6.40;;;;;;;22.96;52.93;99376.59;5053338;28;20041;-49
2021/09/20 06:12:29;;;;;;;11.57;6.50;;;;;;;22.94;53.02;99377.97;5053429;28;20535;-50
2021/09/20 06:14:55;;;;;;;13.93;7.03;;;;;;;22.77;53.55;99397.47;5053323;28;20493;-49
2021/09/20 06:17:20;;;;;;;16.85;10.40;;;;;;;22.71;54.07;99401.34;5053040;28;20032;-47
2021/09/20 06:19:47;;;;;;;11.40;7.82;;;;;;;22.84;53.55;99404.13;5053257;28;20495;-47
2021/09/20 06:22:13;;;;;;;12.35;7.47;;;;;;;22.95;53.52;99402.09;5053373;28;20068;-50
2021/09/20 06:24:38;;;;;;;11.63;6.65;;;;;;;22.99;53.24;99402.31;5053415;28;20048;-48
2021/09/20 06:27:04;;;;;;;11.45;6.68;;;;;;;22.97;53.08;99408.03;5053247;28;20036;-51
2021/09/20 06:29:29;;;;;;;12.43;6.38;;;;;;;23.05;53.18;99403.06;5052769;28;20025;-47
2021/09/20 06:31:57;;;;;;;15.60;7.13;;;;;;;22.65;54.16;99390.56;5053136;28;20492;-47
2021/09/20 06:34:22;;;;;;;12.63;7.18;;;;;;;22.96;53.44;99392.88;5052800;28;20104;-47
2021/09/20 06:36:48;;;;;;;10.57;6.65;;;;;;;22.88;53.63;99401.66;5052785;28;20052;-49
2021/09/20 06:39:13;;;;;;;16.85;6.97;;;;;;;22.64;53.09;99402.53;5053146;28;20029;-47
2021/09/20 06:41:39;;;;;;;11.63;6.20;;;;;;;22.74;53.14;99395.34;5053135;28;20032;-47
2021/09/20 06:44:04;;;;;;;10.07;6.20;;;;;;;23.05;52.83;99389.50;5052942;28;20028;-49
2021/09/20 06:46:30;;;;;;;26.10;15.13;;;;;;;23.31;52.06;99379.06;5052775;28;20497;-47
2021/09/20 06:48:57;;;;;;;12.43;6.78;;;;;;;23.00;53.11;99357.81;5052615;28;20466;-47
2021/09/20 06:51:23;;;;;;;20.73;10.40;;;;;;;22.80;52.94;99348.88;5052282;28;20115;-47
2021/09/20 06:53:50;;;;;;;15.25;7.07;;;;;;;22.99;52.87;99350.75;5052652;28;20021;-51
2021/09/20 06:56:16;;;;;;;13.23;6.55;;;;;;;23.39;51.76;99370.22;5052441;28;20032;-49
2021/09/20 06:58:41;;;;;;;12.48;6.28;;;;;;;23.62;51.80;99369.25;5051200;28;20021;-49
2021/09/20 07:01:07;;;;;;;14.43;7.07;;;;;;;23.72;51.71;99368.31;5052498;28;20083;-47
2021/09/20 07:03:32;;;;;;;9.65;5.97;;;;;;;23.89;51.58;99385.94;5052632;28;20021;-47
2021/09/20 07:05:58;;;;;;;10.77;6.20;;;;;;;24.03;50.80;99378.63;5052677;28;20071;-48
2021/09/20 07:08:23;;;;;;;21.95;14.50;;;;;;;24.05;50.32;99375.59;5052418;28;20485;-47
2021/09/20 07:10:49;;;;;;;18.13;7.05;;;;;;;24.32;48.91;99359.25;5052607;28;20033;-48
2021/09/20 07:13:14;;;;;;;12.68;6.55;;;;;;;24.32;49.38;99353.81;5052018;28;20060;-48
2021/09/20 07:15:40;;;;;;;15.50;7.80;;;;;;;24.43;49.17;99387.03;5051991;28;20039;-50
2021/09/20 07:18:05;;;;;;;11.90;6.10;;;;;;;24.58;49.07;99386.75;5052108;28;20029;-49
2021/09/20 07:20:31;;;;;;;12.60;7.15;;;;;;;24.72;48.51;99380.47;5052273;28;20040;-49
2021/09/20 07:22:56;;;;;;;58.45;38.35;;;;;;;25.03;48.13;99387.94;5051972;28;20370;-49
2021/09/20 07:25:22;;;;;;;15.65;9.63;;;;;;;25.21;47.42;99397.84;5051506;28;20029;-47
2021/09/20 07:27:47;;;;;;;10.75;6.75;;;;;;;25.29;46.94;99402.56;5051757;28;20052;-46
2021/09/20 07:30:19;;;;;;;12.02;6.22;;;;;;;24.97;47.26;99390.75;5052218;28;20025;-47
2021/09/20 07:32:50;;;;;;;12.07;6.18;;;;;;;24.84;48.13;99396.25;5051805;28;20032;-49
2021/09/20 07:35:16;;;;;;;8.50;6.10;;;;;;;24.82;47.77;99385.69;5052013;28;20086;-47
2021/09/20 07:37:45;;;;;;;14.63;6.40;;;;;;;24.82;48.12;99409.38;5051774;28;20060;-48
2021/09/20 07:40:11;;;;;;;;;;;;;;;25.18;47.09;99426.47;5052278;28;20079;-49
2021/09/20 07:42:36;;;;;;;8.63;5.90;;;;;;;25.16;47.61;99420.53;5051915;28;19917;-48
2021/09/20 07:45:02;;;;;;;11.27;5.80;;;;;;;25.13;47.72;99417.63;5051685;28;20021;-48
2021/09/20 07:47:28;;;;;;;8.73;5.90;;;;;;;25.15;47.68;99404.50;5051701;28;20033;-47
2021/09/20 07:49:53;;;;;;;9.48;5.70;;;;;;;25.36;47.30;99404.88;5051540;28;20040;-50
2021/09/20 07:52:19;;;;;;;12.45;6.20;;;;;;;25.51;46.67;99399.03;5051810;28;20114;-47
2021/09/20 07:54:44;;;;;;;10.73;5.88;;;;;;;25.59;46.43;99393.94;5051620;28;20032;-48
2021/09/20 07:57:10;;;;;;;8.75;6.10;;;;;;;25.52;46.83;99381.56;5051550;28;20106;-48
2021/09/20 07:59:35;;;;;;;9.63;6.28;;;;;;;25.78;46.42;99385.53;5051446;28;20143;-47
2021/09/20 08:02:01;;;;;;;12.52;6.88;;;;;;;25.58;46.75;99384.97;5051270;28;20025;-47
2021/09/20 08:04:26;;;;;;;9.88;6.57;;;;;;;25.85;46.38;99396.81;5051378;28;20444;-47
2021/09/20 08:06:52;;;;;;;15.30;10.25;;;;;;;25.88;46.46;99405.16;5051208;28;20146;-47
2021/09/20 08:09:17;;;;;;;18.17;12.20;;;;;;;25.87;46.37;99400.00;5051677;28;20037;-49
2021/09/20 08:11:43;;;;;;;13.90;8.93;;;;;;;26.12;45.29;99390.34;5051083;28;20042;-49
2021/09/20 08:14:08;;;;;;;11.88;6.05;;;;;;;25.88;46.21;99383.34;5051225;28;20057;-50
2021/09/20 08:16:33;;;;;;;10.45;6.03;;;;;;;26.21;45.74;99385.75;5050740;28;20048;-48
2021/09/20 08:18:59;;;;;;;10.90;5.88;;;;;;;26.04;46.46;99389.22;5051404;28;20041;-47
2021/09/20 08:21:24;;;;;;;10.80;5.80;;;;;;;25.96;46.12;99387.25;5049901;28;20475;-49
2021/09/20 08:23:50;;;;;;;8.82;5.35;;;;;;;26.26;45.76;99393.78;5050796;28;20031;-49
2021/09/20 08:26:15;;;;;;;11.38;5.50;;;;;;;26.28;46.02;99393.47;5049752;28;20044;-49
2021/09/20 08:28:41;;;;;;;10.75;5.30;;;;;;;26.83;44.77;99387.50;5050486;28;20448;-51
2021/09/20 08:31:06;;;;;;;17.92;12.18;;;;;;;27.28;43.32;99384.47;5050667;28;20111;-50
2021/09/20 08:33:32;;;;;;;9.30;5.30;;;;;;;27.68;42.50;99373.28;5050893;28;20029;-48
2021/09/20 08:35:58;;;;;;;12.45;4.90;;;;;;;27.99;42.15;99369.47;5050684;28;20029;-49
2021/09/20 08:38:23;;;;;;;7.10;4.53;;;;;;;28.50;41.16;99371.44;5050757;28;20032;-47
2021/09/20 08:40:49;;;;;;;9.75;4.82;;;;;;;27.99;41.54;99365.94;5050663;28;20412;-47
2021/09/20 08:43:14;;;;;;;9.13;5.00;;;;;;;28.06;41.21;99358.00;5050644;28;20108;-48
2021/09/20 08:45:40;;;;;;;8.07;4.25;;;;;;;28.76;39.78;99350.16;5050182;28;20111;-47
2021/09/20 08:48:06;;;;;;;5.90;4.93;;;;;;;28.66;38.89;99342.38;5050473;28;20025;-47
2021/09/20 08:50:33;;;;;;;8.88;4.90;;;;;;;28.46;39.41;99342.00;5050472;28;20075;-49
2021/09/20 08:52:59;;;;;;;14.43;9.75;;;;;;;28.63;39.76;99340.28;5050611;28;20029;-49
2021/09/20 08:55:24;;;;;;;8.75;5.00;;;;;;;29.11;38.76;99338.94;5050592;28;20051;-50
2021/09/20 08:57:50;;;;;;;8.90;3.90;;;;;;;27.83;40.04;99330.91;5050177;28;20055;-49
2021/09/20 09:00:16;;;;;;;7.40;4.20;;;;;;;27.72;41.22;99345.25;5049273;28;20039;-47
2021/09/20 09:02:41;;;;;;;8.48;4.68;;;;;;;28.73;38.97;99339.91;5050464;28;20036;-47
2021/09/20 09:05:23;;;;;;;6.88;4.57;;;;;;;28.92;38.86;99331.22;5049973;28;20540;-47
2021/09/20 09:07:59;;;;;;;9.02;4.55;;;;;;;29.24;39.12;99317.84;5050778;28;20150;-45
2021/09/20 09:10:26;;;;;;;6.93;4.55;;;;;;;29.65;37.65;99323.53;5050593;28;20064;-49
2021/09/20 09:12:52;;;;;;;6.07;4.20;;;;;;;30.18;37.08;99316.25;5049855;28;20143;-48
2021/09/20 09:15:19;;;;;;;5.88;4.22;;;;;;;30.44;37.10;99320.56;5050028;28;20151;-47
2021/09/20 09:17:46;;;;;;;8.23;4.28;;;;;;;30.76;35.98;99316.78;5050130;28;20385;-48
2021/09/20 09:20:23;;;;;;;6.03;4.28;;;;;;;30.84;35.58;99317.78;5049411;28;20472;-47
2021/09/20 09:22:58;;;;;;;9.77;4.40;;;;;;;30.54;35.78;99312.63;5049101;28;20029;-47
2021/09/20 09:25:25;;;;;;;5.88;4.20;;;;;;;30.32;36.41;99315.91;5049774;28;20456;-46
2021/09/20 09:27:56;;;;;;;147.73;109.60;;;;;;;30.52;35.15;99309.44;5050012;28;20032;-46
2021/09/20 09:30:27;;;;;;;8.90;6.05;;;;;;;30.59;35.61;99312.38;5049784;28;20311;-49
2021/09/20 09:33:26;;;;;;;10.68;4.57;;;;;;;30.97;36.07;99310.31;5049008;28;20025;-48
2021/09/20 09:35:53;;;;;;;9.50;4.40;;;;;;;31.49;34.19;99314.06;5049768;28;20104;-50
2021/09/20 09:38:19;;;;;;;7.80;4.25;;;;;;;31.84;33.67;99310.59;5049841;28;20352;-46
2021/09/20 09:40:54;;;;;;;9.27;4.40;;;;;;;31.62;33.17;99306.53;5050023;28;20029;-47
2021/09/20 09:43:35;;;;;;;25.50;17.42;;;;;;;31.59;32.69;99307.22;5049970;28;20040;-47
2021/09/20 09:46:36;;;;;;;10.20;4.85;;;;;;;31.46;33.03;99301.81;5049312;28;20033;-47
2021/09/20 09:49:13;;;;;;;9.00;4.50;;;;;;;31.23;33.57;99306.31;5007893;28;20042;-48
2021/09/20 09:52:12;;;;;;;12.02;4.20;;;;;;;31.27;33.69;99299.75;5044225;28;20509;-47
2021/09/20 09:54:41;;;;;;;10.20;4.07;;;;;;;31.50;33.12;99286.22;5047766;28;20095;-47
2021/09/20 09:57:22;;;;;;;7.88;4.20;;;;;;;31.40;33.69;99277.66;5050141;28;20037;-46
2021/09/20 09:59:55;;;;;;;9.98;4.32;;;;;;;31.72;33.84;99275.72;5050095;28;20033;-46
2021/09/20 10:02:25;;;;;;;5.80;4.10;;;;;;;32.33;33.12;99272.41;5049143;28;20033;-49
2021/09/20 10:04:58;;;;;;;11.50;5.00;;;;;;;32.81;32.42;99276.94;5049745;28;20554;-48
2021/09/20 10:07:29;;;;;;;9.82;4.55;;;;;;;31.65;32.73;99270.06;5049992;28;20036;-48
2021/09/20 10:09:56;;;;;;;9.77;4.80;;;;;;;31.66;33.37;99268.91;5049630;28;20028;-49
2021/09/20 10:12:23;;;;;;;11.30;4.75;;;;;;;32.09;32.63;99267.16;5048197;28;20029;-47
2021/09/20 10:14:49;;;;;;;8.73;4.78;;;;;;;32.29;32.22;99262.47;5049508;28;20413;-50
2021/09/20 10:17:18;;;;;;;7.40;4.32;;;;;;;32.62;31.37;99270.28;5048418;28;20036;-50
2021/09/20 10:19:44;;;;;;;35.20;25.67;;;;;;;32.98;30.96;99265.44;5048561;28;20087;-47
2021/09/20 10:22:09;;;;;;;7.65;4.60;;;;;;;32.31;31.37;99254.66;5048172;28;20029;-47
2021/09/20 10:24:35;;;;;;;10.13;4.68;;;;;;;32.87;31.03;99253.44;5048284;28;20037;-47
2021/09/20 10:27:00;;;;;;;8.00;4.38;;;;;;;32.85;31.45;99251.03;5049457;28;20095;-47
2021/09/20 10:29:26;;;;;;;6.93;4.55;;;;;;;33.13;30.69;99232.63;5049139;28;20013;-49
2021/09/20 10:31:52;;;;;;;8.10;4.45;;;;;;;33.03;30.83;99226.53;5049363;28;20551;-49
2021/09/20 10:34:20;;;;;;;7.72;4.60;;;;;;;33.40;30.87;99228.00;5051629;28;20032;-47
2021/09/20 10:36:48;;;;;;;;;;;;;;;34.14;29.77;99229.44;5053347;28;20151;-48
2021/09/20 10:39:14;;;;;;;12.68;4.93;;;;;;;34.12;29.72;99231.78;5051577;28;19908;-49
2021/09/20 10:41:39;;;;;;;8.85;4.43;;;;;;;34.25;29.61;99233.97;5051312;28;20060;-48
2021/09/20 10:44:06;;;;;;;7.45;4.10;;;;;;;34.16;29.25;99227.16;5052691;28;20033;-48
2021/09/20 10:46:33;;;;;;;8.45;4.18;;;;;;;33.45;29.41;99222.97;5052997;28;20025;-47
2021/09/20 10:49:02;;;;;;;8.48;4.00;;;;;;;33.21;30.38;99223.34;5052832;28;20025;-48
2021/09/20 10:51:39;;;;;;;10.23;4.38;;;;;;;33.53;29.96;99228.56;5052515;28;20032;-49
2021/09/20 10:54:21;;;;;;;8.45;4.80;;;;;;;33.31;30.93;99219.97;5052642;28;20444;-48
2021/09/20 10:56:51;;;;;;;7.63;4.13;;;;;;;33.20;30.55;99219.00;5052458;28;20074;-49
2021/09/20 10:59:18;;;;;;;8.43;4.80;;;;;;;33.02;30.54;99213.94;5052571;28;20420;-49
2021/09/20 11:01:46;;;;;;;8.48;4.55;;;;;;;33.14;30.25;99209.44;5052707;28;20035;-45
2021/09/20 11:04:22;;;;;;;7.38;4.60;;;;;;;32.64;31.67;99206.56;5051030;28;20032;-47
2021/09/20 11:07:06;;;;;;;8.60;4.05;;;;;;;32.94;30.66;99203.97;5052606;28;20061;-47
2021/09/20 11:10:02;;;;;;;8.38;3.90;;;;;;;32.18;31.58;99217.41;5052939;28;20048;-47
2021/09/20 11:12:28;;;;;;;7.90;4.20;;;;;;;32.23;31.52;99212.41;5050888;28;20206;-50
2021/09/20 11:15:08;;;;;;;6.88;4.10;;;;;;;32.21;31.44;99209.22;5052061;28;20029;-47
2021/09/20 11:17:33;;;;;;;10.43;4.20;;;;;;;32.54;31.11;99202.44;5052158;28;20047;-47
2021/09/20 11:20:00;;;;;;;6.72;4.00;;;;;;;32.74;31.24;99208.72;5050549;28;20112;-47
2021/09/20 11:22:32;;;;;;;8.48;3.72;;;;;;;32.94;31.48;99201.22;5052609;28;20257;-47
2021/09/20 11:25:03;;;;;;;7.18;3.80;;;;;;;33.10;31.29;99188.13;5052155;28;20090;-46
2021/09/20 11:27:39;;;;;;;6.88;4.10;;;;;;;33.24;31.27;99189.53;5052311;28;20096;-50